createdAt,value
2019-03-30T00:00:18.023Z,11.63
2019-03-30T00:02:28.888Z,11.97
2019-03-30T00:04:39.838Z,11.40
2019-03-30T00:06:50.784Z,12.03
2019-03-30T00:09:01.966Z,11.90
2019-03-30T00:11:12.893Z,10.97
2019-03-30T00:13:23.879Z,11.47
2019-03-30T00:15:34.712Z,11.53
2019-03-30T00:17:45.552Z,11.40
2019-03-30T00:19:56.407Z,11.87
2019-03-30T00:22:07.348Z,11.40
2019-03-30T00:24:18.226Z,11.87
2019-03-30T00:26:29.068Z,12.93
2019-03-30T00:28:39.898Z,12.17
2019-03-30T00:30:50.797Z,12.27
2019-03-30T00:33:01.698Z,11.17
2019-03-30T00:35:12.560Z,10.77
2019-03-30T00:37:23.391Z,12.20
2019-03-30T00:39:34.257Z,11.57
2019-03-30T00:41:45.095Z,12.43
2019-03-30T00:43:55.938Z,11.43
2019-03-30T00:46:06.789Z,12.47
2019-03-30T00:48:17.637Z,11.97
2019-03-30T00:50:28.607Z,12.73
2019-03-30T00:52:39.446Z,12.33
2019-03-30T00:54:50.295Z,11.93
2019-03-30T00:57:01.274Z,12.47
2019-03-30T00:59:12.222Z,12.53
2019-03-30T01:01:23.117Z,12.50
2019-03-30T01:03:33.944Z,12.10
2019-03-30T01:05:44.917Z,12.10
2019-03-30T01:07:55.752Z,11.77
2019-03-30T01:10:06.715Z,12.00
2019-03-30T01:12:17.559Z,11.67
2019-03-30T01:14:28.395Z,11.77
2019-03-30T01:16:39.321Z,12.10
2019-03-30T01:18:50.163Z,12.40
2019-03-30T01:21:01.134Z,12.43
2019-03-30T01:23:11.986Z,12.77
2019-03-30T01:25:22.827Z,11.87
2019-03-30T01:27:33.682Z,12.30
2019-03-30T01:29:44.629Z,12.17
2019-03-30T01:31:55.607Z,12.27
2019-03-30T01:34:06.440Z,12.77
2019-03-30T01:36:17.289Z,12.13
2019-03-30T01:38:28.166Z,11.97
2019-03-30T01:40:39.006Z,10.97
2019-03-30T01:42:49.860Z,12.07
2019-03-30T01:45:00.815Z,13.17
2019-03-30T01:47:11.669Z,12.23
2019-03-30T01:49:22.506Z,11.63
2019-03-30T01:51:33.342Z,12.23
2019-03-30T01:53:44.213Z,12.70
2019-03-30T01:55:55.042Z,13.30
2019-03-30T01:58:05.892Z,12.23
2019-03-30T02:00:16.929Z,12.57
2019-03-30T02:02:27.801Z,13.67
2019-03-30T02:04:38.668Z,12.40
2019-03-30T02:06:49.534Z,12.50
2019-03-30T02:09:00.389Z,12.43
2019-03-30T02:11:11.217Z,12.57
2019-03-30T02:13:22.094Z,11.10
2019-03-30T02:15:32.950Z,11.47
2019-03-30T02:17:43.828Z,11.83
2019-03-30T02:19:54.685Z,12.63
2019-03-30T02:22:05.521Z,12.87
2019-03-30T02:24:16.375Z,12.83
2019-03-30T02:26:27.416Z,12.73
2019-03-30T02:28:38.273Z,13.87
2019-03-30T02:30:49.124Z,13.07
2019-03-30T02:33:00.198Z,13.10
2019-03-30T02:35:11.110Z,13.37
2019-03-30T02:37:22.058Z,13.10
2019-03-30T02:39:32.898Z,12.23
2019-03-30T02:41:43.883Z,12.60
2019-03-30T02:43:54.742Z,13.07
2019-03-30T02:46:05.776Z,12.47
2019-03-30T02:48:16.621Z,12.80
2019-03-30T02:50:27.486Z,13.57
2019-03-30T02:52:38.322Z,13.17
2019-03-30T02:54:49.180Z,11.87
2019-03-30T02:57:00.019Z,12.23
2019-03-30T02:59:10.909Z,12.57
2019-03-30T03:01:21.767Z,13.30
2019-03-30T03:03:32.609Z,12.07
2019-03-30T03:05:43.572Z,11.50
2019-03-30T03:07:54.406Z,11.93
2019-03-30T03:10:07.663Z,12.17
2019-03-30T03:12:18.512Z,12.60
2019-03-30T03:14:29.464Z,12.70
2019-03-30T03:16:40.337Z,12.77
2019-03-30T03:18:51.161Z,12.57
2019-03-30T03:21:07.996Z,12.80
2019-03-30T03:23:14.914Z,11.23
2019-03-30T03:25:25.786Z,13.43
2019-03-30T03:27:36.725Z,11.90
2019-03-30T03:29:47.569Z,12.33
2019-03-30T03:31:58.422Z,12.70
2019-03-30T03:34:09.503Z,12.00
2019-03-30T03:36:20.354Z,11.90
2019-03-30T03:38:31.197Z,12.43
2019-03-30T03:40:42.051Z,12.40
2019-03-30T03:42:52.889Z,12.70
2019-03-30T03:45:06.140Z,12.40
2019-03-30T03:47:17.006Z,12.17
2019-03-30T03:49:27.846Z,13.27
2019-03-30T03:51:39.198Z,12.67
2019-03-30T03:53:50.241Z,13.33
2019-03-30T03:56:03.053Z,14.27
2019-03-30T03:58:14.277Z,12.20
2019-03-30T04:00:25.723Z,13.50
2019-03-30T04:02:36.845Z,11.40
2019-03-30T04:04:48.590Z,13.10
2019-03-30T04:07:00.072Z,12.93
2019-03-30T04:09:12.115Z,13.53
2019-03-30T04:11:23.092Z,13.10
2019-03-30T04:13:33.904Z,12.80
2019-03-30T04:15:44.867Z,13.43
2019-03-30T04:17:55.712Z,12.53
2019-03-30T04:20:06.656Z,13.13
2019-03-30T04:22:17.510Z,13.77
2019-03-30T04:24:28.346Z,13.17
2019-03-30T04:26:39.332Z,12.83
2019-03-30T04:28:50.409Z,13.10
2019-03-30T04:31:01.205Z,12.90
2019-03-30T04:33:12.065Z,13.13
2019-03-30T04:35:22.913Z,13.63
2019-03-30T04:37:33.781Z,13.30
2019-03-30T04:39:44.622Z,13.67
2019-03-30T04:41:55.478Z,13.87
2019-03-30T04:44:06.324Z,13.23
2019-03-30T04:46:17.168Z,14.00
2019-03-30T04:48:29.647Z,13.07
2019-03-30T04:50:40.710Z,14.57
2019-03-30T04:52:51.561Z,13.33
2019-03-30T04:55:04.508Z,15.20
2019-03-30T04:57:15.492Z,13.50
2019-03-30T04:59:26.368Z,13.30
2019-03-30T05:01:37.221Z,12.80
2019-03-30T05:03:48.080Z,13.93
2019-03-30T05:05:59.008Z,13.57
2019-03-30T05:08:09.970Z,13.03
2019-03-30T05:10:20.815Z,13.43
2019-03-30T05:12:31.637Z,14.37
2019-03-30T05:14:42.513Z,14.90
2019-03-30T05:16:53.383Z,13.93
2019-03-30T05:19:06.138Z,14.33
2019-03-30T05:21:17.143Z,14.43
2019-03-30T05:23:27.973Z,14.70
2019-03-30T05:25:38.846Z,14.37
2019-03-30T05:27:49.675Z,13.63
2019-03-30T05:30:00.602Z,12.83
2019-03-30T05:32:11.446Z,13.07
2019-03-30T05:34:22.297Z,15.07
2019-03-30T05:36:33.158Z,14.57
2019-03-30T05:38:44.017Z,13.40
2019-03-30T05:40:54.866Z,13.77
2019-03-30T05:43:05.778Z,13.73
2019-03-30T05:45:16.671Z,14.53
2019-03-30T05:47:27.511Z,14.40
2019-03-30T05:49:38.369Z,14.10
2019-03-30T05:51:49.254Z,12.87
2019-03-30T05:54:00.224Z,13.50
2019-03-30T05:56:11.181Z,13.50
2019-03-30T05:58:22.020Z,13.53
2019-03-30T06:00:32.995Z,13.57
2019-03-30T06:02:43.860Z,13.13
2019-03-30T06:04:54.947Z,14.50
2019-03-30T06:07:05.774Z,13.93
2019-03-30T06:09:16.646Z,13.90
2019-03-30T06:11:27.490Z,12.90
2019-03-30T06:13:38.331Z,13.30
2019-03-30T06:15:49.200Z,13.13
2019-03-30T06:18:00.052Z,13.43
2019-03-30T06:20:11.104Z,12.80
2019-03-30T06:22:21.953Z,12.70
2019-03-30T06:24:32.912Z,14.40
2019-03-30T06:26:43.760Z,14.23
2019-03-30T06:28:54.605Z,13.33
2019-03-30T06:31:05.578Z,13.93
2019-03-30T06:33:16.502Z,14.27
2019-03-30T06:35:27.374Z,14.47
2019-03-30T06:37:38.238Z,14.47
2019-03-30T06:39:49.076Z,14.23
2019-03-30T06:42:00.054Z,14.33
2019-03-30T06:44:11.005Z,14.70
2019-03-30T06:46:23.803Z,15.30
2019-03-30T06:48:36.251Z,14.63
2019-03-30T06:50:47.304Z,14.00
2019-03-30T06:52:58.890Z,15.07
2019-03-30T06:55:10.105Z,15.70
2019-03-30T06:57:20.954Z,15.47
2019-03-30T06:59:31.800Z,15.60
2019-03-30T07:01:42.911Z,14.77
2019-03-30T07:03:53.961Z,15.00
2019-03-30T07:06:05.339Z,15.17
2019-03-30T07:08:16.277Z,15.03
2019-03-30T07:10:27.231Z,16.00
2019-03-30T07:12:38.884Z,15.20
2019-03-30T07:14:52.038Z,14.57
2019-03-30T07:17:03.103Z,14.97
2019-03-30T07:19:13.963Z,15.30
2019-03-30T07:21:24.798Z,14.90
2019-03-30T07:23:35.659Z,15.03
2019-03-30T07:25:46.526Z,15.10
2019-03-30T07:27:57.530Z,15.37
2019-03-30T07:30:09.186Z,14.87
2019-03-30T07:32:20.213Z,15.00
2019-03-30T07:34:31.080Z,15.30
2019-03-30T07:36:42.032Z,14.97
2019-03-30T07:38:52.886Z,15.03
2019-03-30T07:41:03.923Z,15.73
2019-03-30T07:43:14.917Z,14.70
2019-03-30T07:45:25.771Z,14.23
2019-03-30T07:47:36.582Z,15.17
2019-03-30T07:49:47.477Z,15.57
2019-03-30T07:51:58.325Z,15.57
2019-03-30T07:54:09.198Z,15.37
2019-03-30T07:56:20.140Z,14.67
2019-03-30T07:58:31.005Z,14.63
2019-03-30T08:00:41.958Z,14.67
2019-03-30T08:02:52.848Z,14.87
2019-03-30T08:05:05.499Z,14.47
2019-03-30T08:07:16.378Z,14.93
2019-03-30T08:09:27.397Z,15.87
2019-03-30T08:11:38.376Z,14.77
2019-03-30T08:13:49.244Z,14.60
2019-03-30T08:16:00.318Z,13.73
2019-03-30T08:18:11.150Z,14.37
2019-03-30T08:20:22.026Z,14.73
2019-03-30T08:22:32.975Z,14.57
2019-03-30T08:24:43.849Z,14.40
2019-03-30T08:26:54.816Z,14.53
2019-03-30T08:29:05.661Z,14.70
2019-03-30T08:31:16.540Z,15.23
2019-03-30T08:33:29.353Z,15.30
2019-03-30T08:35:40.211Z,14.33
2019-03-30T08:37:52.972Z,14.20
2019-03-30T08:40:04.276Z,14.43
2019-03-30T08:42:15.220Z,14.37
2019-03-30T08:44:26.076Z,13.80
2019-03-30T08:46:36.968Z,14.50
2019-03-30T08:48:47.810Z,14.77
2019-03-30T08:50:58.753Z,14.03
2019-03-30T08:53:09.628Z,15.13
2019-03-30T08:55:20.558Z,14.73
2019-03-30T08:57:31.410Z,14.03
2019-03-30T08:59:42.251Z,14.80
2019-03-30T09:01:53.246Z,13.83
2019-03-30T09:04:04.201Z,13.80
2019-03-30T09:06:15.195Z,14.37
2019-03-30T09:08:26.106Z,14.20
2019-03-30T09:10:37.069Z,14.43
2019-03-30T09:12:47.902Z,13.13
2019-03-30T09:14:58.752Z,14.43
2019-03-30T09:17:09.825Z,14.23
2019-03-30T09:19:20.670Z,14.13
2019-03-30T09:21:31.645Z,13.40
2019-03-30T09:23:42.490Z,15.43
2019-03-30T09:25:53.354Z,13.77
2019-03-30T09:28:04.218Z,13.83
2019-03-30T09:30:15.457Z,14.40
2019-03-30T09:32:26.814Z,15.40
2019-03-30T09:34:37.658Z,14.93
2019-03-30T09:36:48.858Z,14.53
2019-03-30T09:38:59.988Z,14.37
2019-03-30T09:41:10.947Z,14.63
2019-03-30T09:43:21.833Z,13.77
2019-03-30T09:45:32.678Z,15.37
2019-03-30T09:47:43.665Z,14.50
2019-03-30T09:49:54.525Z,13.67
2019-03-30T09:52:05.489Z,14.17
2019-03-30T09:54:23.479Z,14.40
2019-03-30T09:56:29.301Z,14.23
2019-03-30T09:58:40.301Z,13.77
2019-03-30T10:00:51.175Z,15.33
2019-03-30T10:03:05.778Z,14.63
2019-03-30T10:05:15.007Z,14.20
2019-03-30T10:07:25.908Z,14.30
2019-03-30T10:09:37.593Z,13.93
2019-03-30T10:11:48.423Z,13.90
2019-03-30T10:13:59.309Z,13.67
2019-03-30T10:16:10.472Z,13.50
2019-03-30T10:18:21.354Z,14.23
2019-03-30T10:20:32.216Z,13.77
2019-03-30T10:22:43.197Z,12.73
2019-03-30T10:24:54.167Z,12.67
2019-03-30T10:27:05.011Z,13.20
2019-03-30T10:29:15.994Z,12.27
2019-03-30T10:31:26.856Z,12.53
2019-03-30T10:33:37.721Z,12.93
2019-03-30T10:35:48.576Z,12.43
2019-03-30T10:37:59.528Z,13.50
2019-03-30T10:40:10.610Z,10.97
2019-03-30T10:42:23.484Z,12.87
2019-03-30T10:44:34.357Z,11.30
2019-03-30T10:46:45.213Z,11.00
2019-03-30T10:48:56.085Z,10.40
2019-03-30T10:51:06.918Z,11.43
2019-03-30T10:53:17.815Z,11.10
2019-03-30T10:55:28.688Z,11.07
2019-03-30T10:57:39.525Z,12.77
2019-03-30T10:59:50.492Z,11.90
2019-03-30T11:02:01.563Z,12.57
2019-03-30T11:04:12.427Z,11.13
2019-03-30T11:06:23.269Z,11.20
2019-03-30T11:08:34.219Z,11.27
2019-03-30T11:10:45.096Z,10.20
2019-03-30T11:12:55.990Z,10.77
2019-03-30T11:15:07.166Z,11.40
2019-03-30T11:17:19.463Z,10.67
2019-03-30T11:19:30.481Z,11.30
2019-03-30T11:21:42.206Z,10.27
2019-03-30T11:23:53.118Z,11.27
2019-03-30T11:26:04.472Z,10.80
2019-03-30T11:28:15.331Z,10.77
2019-03-30T11:30:26.227Z,10.13
2019-03-30T11:32:37.166Z,10.90
2019-03-30T11:34:48.029Z,10.23
2019-03-30T11:36:58.891Z,9.77
2019-03-30T11:39:09.831Z,9.47
2019-03-30T11:41:20.854Z,9.43
2019-03-30T11:43:31.779Z,9.67
2019-03-30T11:45:42.658Z,9.87
2019-03-30T11:47:53.485Z,9.60
2019-03-30T11:50:05.420Z,10.13
2019-03-30T11:52:16.288Z,10.43
2019-03-30T11:54:27.145Z,10.60
2019-03-30T11:56:38.040Z,9.03
2019-03-30T11:58:48.868Z,9.77
2019-03-30T12:01:00.048Z,9.90
2019-03-30T12:03:10.904Z,11.23
2019-03-30T12:05:21.756Z,9.07
2019-03-30T12:07:32.607Z,9.23
2019-03-30T12:09:43.478Z,9.13
2019-03-30T12:11:54.346Z,9.00
2019-03-30T12:14:05.208Z,8.20
2019-03-30T12:16:16.112Z,7.37
2019-03-30T12:18:27.058Z,8.13
2019-03-30T12:20:37.907Z,7.67
2019-03-30T12:22:48.897Z,7.60
2019-03-30T12:24:59.776Z,6.50
2019-03-30T12:27:10.729Z,6.33
2019-03-30T12:29:21.625Z,7.30
2019-03-30T12:31:32.461Z,7.40
2019-03-30T12:33:43.348Z,5.77
2019-03-30T12:35:54.188Z,5.77
2019-03-30T12:38:07.052Z,5.90
2019-03-30T12:40:17.998Z,6.13
2019-03-30T12:42:28.871Z,6.30
2019-03-30T12:44:39.738Z,5.40
2019-03-30T12:46:50.582Z,5.90
2019-03-30T12:49:01.496Z,6.73
2019-03-30T12:51:12.343Z,7.40
2019-03-30T12:53:23.221Z,6.97
2019-03-30T12:55:34.165Z,6.77
2019-03-30T12:57:45.174Z,7.90
2019-03-30T12:59:59.160Z,7.63
2019-03-30T13:02:08.886Z,7.23
2019-03-30T13:04:19.772Z,6.87
2019-03-30T13:06:30.641Z,6.67
2019-03-30T13:08:41.488Z,6.57
2019-03-30T13:10:52.335Z,6.60
2019-03-30T13:13:03.274Z,6.70
2019-03-30T13:15:14.344Z,7.47
2019-03-30T13:17:25.287Z,6.77
2019-03-30T13:19:36.266Z,5.93
2019-03-30T13:21:52.751Z,7.63
2019-03-30T13:24:00.465Z,7.13
2019-03-30T13:26:11.404Z,6.40
2019-03-30T13:28:22.262Z,6.67
2019-03-30T13:30:33.227Z,7.17
2019-03-30T13:32:44.086Z,7.60
2019-03-30T13:34:54.975Z,8.00
2019-03-30T13:37:14.095Z,6.73
2019-03-30T13:39:24.942Z,7.50
2019-03-30T13:41:36.012Z,7.33
2019-03-30T13:43:46.853Z,6.63
2019-03-30T13:45:57.923Z,6.93
2019-03-30T13:48:10.660Z,6.70
2019-03-30T13:50:21.539Z,7.90
2019-03-30T13:52:32.459Z,6.60
2019-03-30T13:54:43.323Z,7.03
2019-03-30T13:56:54.165Z,7.03
2019-03-30T13:59:05.035Z,7.10
2019-03-30T14:01:16.016Z,7.87
2019-03-30T14:03:26.892Z,6.90
2019-03-30T14:05:37.754Z,6.43
2019-03-30T14:07:48.693Z,6.73
2019-03-30T14:09:59.796Z,7.03
2019-03-30T14:12:10.753Z,7.00
2019-03-30T14:14:21.602Z,6.43
2019-03-30T14:16:32.503Z,7.00
2019-03-30T14:18:43.339Z,7.43
2019-03-30T14:20:54.211Z,6.60
2019-03-30T14:23:05.071Z,7.50
2019-03-30T14:25:15.948Z,6.90
2019-03-30T14:27:26.829Z,7.20
2019-03-30T14:29:37.681Z,7.10
2019-03-30T14:31:48.575Z,7.03
2019-03-30T14:33:59.473Z,8.00
2019-03-30T14:36:10.332Z,7.07
2019-03-30T14:38:21.185Z,6.73
2019-03-30T14:40:32.038Z,7.00
2019-03-30T14:42:43.015Z,7.63
2019-03-30T14:44:53.980Z,7.37
2019-03-30T14:47:04.833Z,8.10
2019-03-30T14:49:15.769Z,7.00
2019-03-30T14:51:26.624Z,7.20
2019-03-30T14:53:37.489Z,7.50
2019-03-30T14:55:48.415Z,7.07
2019-03-30T14:57:59.308Z,7.43
2019-03-30T15:00:10.633Z,8.17
2019-03-30T15:02:21.616Z,7.77
2019-03-30T15:04:32.484Z,7.73
2019-03-30T15:06:43.344Z,7.30
2019-03-30T15:08:54.187Z,7.93
2019-03-30T15:11:05.057Z,8.00
2019-03-30T15:13:15.927Z,8.30
2019-03-30T15:15:26.768Z,7.67
2019-03-30T15:17:40.649Z,7.00
2019-03-30T15:19:50.585Z,7.27
2019-03-30T15:22:01.436Z,6.17
2019-03-30T15:24:12.289Z,9.07
2019-03-30T15:26:23.237Z,7.87
2019-03-30T15:28:34.121Z,8.10
2019-03-30T15:30:44.969Z,7.30
2019-03-30T15:32:55.940Z,7.73
2019-03-30T15:35:06.904Z,7.97
2019-03-30T15:37:17.743Z,6.60
2019-03-30T15:39:28.617Z,7.40
2019-03-30T15:41:39.564Z,7.17
2019-03-30T15:43:52.176Z,7.13
2019-03-30T15:46:03.301Z,8.40
2019-03-30T15:48:14.168Z,6.87
2019-03-30T15:50:24.999Z,8.23
2019-03-30T15:52:35.871Z,7.30
2019-03-30T15:54:46.849Z,8.03
2019-03-30T15:56:57.957Z,7.30
2019-03-30T15:59:08.897Z,8.07
2019-03-30T16:01:20.007Z,7.20
2019-03-30T16:03:30.972Z,6.90
2019-03-30T16:05:42.222Z,7.50
2019-03-30T16:07:53.181Z,8.03
2019-03-30T16:10:05.159Z,8.37
2019-03-30T16:12:16.116Z,7.73
2019-03-30T16:14:26.955Z,7.67
2019-03-30T16:16:37.933Z,7.17
2019-03-30T16:18:48.799Z,14.43
2019-03-30T16:20:59.757Z,9.33
2019-03-30T16:23:12.721Z,10.47
2019-03-30T16:25:23.696Z,12.03
2019-03-30T16:27:34.547Z,9.20
2019-03-30T16:29:45.495Z,9.87
2019-03-30T16:31:56.421Z,9.23
2019-03-30T16:34:07.209Z,8.07
2019-03-30T16:36:18.215Z,8.73
2019-03-30T16:38:29.232Z,9.13
2019-03-30T16:40:40.228Z,9.17
2019-03-30T16:42:51.054Z,7.93
2019-03-30T16:45:03.383Z,9.33
2019-03-30T16:47:14.366Z,13.87
2019-03-30T16:49:25.285Z,12.83
2019-03-30T16:51:36.157Z,10.47
2019-03-30T16:53:47.487Z,9.20
2019-03-30T16:55:58.498Z,8.60
2019-03-30T16:58:09.366Z,9.77
2019-03-30T17:00:20.315Z,8.80
2019-03-30T17:02:31.205Z,7.10
2019-03-30T17:04:42.047Z,8.07
2019-03-30T17:06:52.918Z,9.60
2019-03-30T17:09:04.764Z,11.03
2019-03-30T17:11:15.740Z,10.23
2019-03-30T17:13:26.621Z,11.20
2019-03-30T17:15:37.484Z,9.17
2019-03-30T17:17:48.371Z,10.47
2019-03-30T17:19:59.214Z,11.43
2019-03-30T17:22:10.081Z,9.50
2019-03-30T17:24:21.044Z,9.63
2019-03-30T17:26:31.892Z,8.93
2019-03-30T17:28:42.763Z,8.70
2019-03-30T17:30:53.633Z,8.70
2019-03-30T17:33:04.690Z,9.40
2019-03-30T17:35:15.651Z,12.53
2019-03-30T17:37:26.652Z,11.20
2019-03-30T17:39:37.505Z,10.00
2019-03-30T17:41:48.403Z,9.43
2019-03-30T17:43:59.270Z,10.33
2019-03-30T17:46:10.113Z,11.50
2019-03-30T17:48:22.975Z,12.17
2019-03-30T17:50:33.930Z,11.93
2019-03-30T17:52:44.968Z,11.70
2019-03-30T17:54:55.789Z,13.23
2019-03-30T17:57:06.725Z,14.93
2019-03-30T17:59:19.508Z,12.83
2019-03-30T18:01:30.542Z,11.10
2019-03-30T18:03:41.468Z,10.03
2019-03-30T18:05:52.303Z,11.13
2019-03-30T18:08:03.277Z,10.43
2019-03-30T18:10:14.433Z,10.63
2019-03-30T18:12:25.380Z,10.37
2019-03-30T18:14:36.265Z,13.57
2019-03-30T18:16:47.112Z,11.90
2019-03-30T18:18:57.998Z,10.50
2019-03-30T18:21:08.865Z,9.70
2019-03-30T18:23:19.710Z,9.30
2019-03-30T18:25:30.574Z,10.20
2019-03-30T18:27:41.411Z,10.00
2019-03-30T18:29:52.265Z,9.87
2019-03-30T18:32:03.335Z,10.43
2019-03-30T18:34:14.531Z,10.70
2019-03-30T18:36:25.469Z,10.77
2019-03-30T18:38:37.563Z,10.17
2019-03-30T18:40:48.502Z,10.10
2019-03-30T18:43:01.151Z,10.13
2019-03-30T18:45:15.845Z,11.33
2019-03-30T18:47:26.887Z,11.23
2019-03-30T18:49:37.771Z,10.53
2019-03-30T18:51:48.772Z,11.33
2019-03-30T18:53:59.870Z,10.63
2019-03-30T18:56:10.702Z,10.80
2019-03-30T18:58:21.674Z,11.03
2019-03-30T19:00:32.644Z,10.93
2019-03-30T19:02:45.401Z,12.10
2019-03-30T19:04:56.280Z,11.77
2019-03-30T19:07:07.151Z,12.07
2019-03-30T19:09:18.008Z,11.70
2019-03-30T19:11:28.926Z,11.77
2019-03-30T19:13:39.757Z,10.50
2019-03-30T19:15:50.999Z,9.93
2019-03-30T19:18:01.865Z,8.97
2019-03-30T19:20:12.842Z,9.10
2019-03-30T19:22:23.822Z,9.60
2019-03-30T19:24:34.673Z,10.30
2019-03-30T19:26:45.567Z,9.60
2019-03-30T19:28:56.971Z,9.57
2019-03-30T19:31:07.900Z,8.67
2019-03-30T19:33:18.760Z,8.67
2019-03-30T19:35:29.653Z,8.87
2019-03-30T19:37:40.509Z,8.87
2019-03-30T19:39:51.377Z,8.33
2019-03-30T19:42:02.829Z,9.07
2019-03-30T19:44:15.564Z,9.30
2019-03-30T19:46:26.916Z,8.40
2019-03-30T19:48:37.797Z,9.00
2019-03-30T19:50:48.664Z,9.17
2019-03-30T19:52:59.542Z,9.33
2019-03-30T19:55:10.514Z,9.40
2019-03-30T19:57:21.411Z,8.83
2019-03-30T19:59:32.246Z,10.10
2019-03-30T20:01:43.139Z,9.60
2019-03-30T20:03:54.183Z,9.63
2019-03-30T20:06:04.998Z,9.40
2019-03-30T20:08:16.078Z,8.73
2019-03-30T20:10:27.014Z,8.70
2019-03-30T20:12:37.888Z,8.40
2019-03-30T20:14:48.855Z,8.27
2019-03-30T20:16:59.751Z,9.00
2019-03-30T20:19:12.755Z,8.80
2019-03-30T20:21:23.484Z,8.70
2019-03-30T20:23:34.414Z,8.43
2019-03-30T20:25:45.253Z,8.67
2019-03-30T20:27:56.141Z,9.10
2019-03-30T20:30:08.384Z,8.77
2019-03-30T20:32:19.250Z,9.50
2019-03-30T20:34:30.127Z,10.63
2019-03-30T20:36:41.100Z,12.10
2019-03-30T20:38:51.975Z,10.60
2019-03-30T20:41:02.912Z,10.00
2019-03-30T20:43:13.879Z,9.80
2019-03-30T20:45:24.716Z,8.90
2019-03-30T20:47:35.712Z,9.70
2019-03-30T20:49:46.589Z,9.27
2019-03-30T20:51:57.482Z,9.60
2019-03-30T20:54:08.456Z,9.53
2019-03-30T20:56:19.306Z,9.93
2019-03-30T20:58:30.364Z,10.33
2019-03-30T21:00:41.314Z,11.67
2019-03-30T21:02:52.185Z,12.20
2019-03-30T21:05:04.753Z,15.17
2019-03-30T21:07:15.628Z,16.37
2019-03-30T21:09:26.593Z,15.33
2019-03-30T21:11:37.428Z,12.07
2019-03-30T21:13:48.422Z,11.47
2019-03-30T21:15:59.321Z,9.83
2019-03-30T21:18:10.249Z,9.70
2019-03-30T21:20:23.126Z,8.90
2019-03-30T21:22:34.225Z,9.07
2019-03-30T21:24:45.211Z,8.77
2019-03-30T21:26:56.061Z,9.30
2019-03-30T21:29:07.026Z,9.43
2019-03-30T21:31:17.882Z,9.43
2019-03-30T21:33:28.735Z,9.70
2019-03-30T21:35:39.621Z,9.33
2019-03-30T21:37:50.596Z,9.70
2019-03-30T21:40:02.280Z,8.73
2019-03-30T21:42:13.150Z,9.97
2019-03-30T21:44:23.996Z,9.30
2019-03-30T21:46:35.080Z,9.10
2019-03-30T21:48:46.030Z,8.57
2019-03-30T21:50:57.031Z,9.50
2019-03-30T21:53:07.872Z,9.67
2019-03-30T21:55:18.725Z,9.83
2019-03-30T21:57:29.605Z,9.93
2019-03-30T21:59:40.566Z,9.10
2019-03-30T22:01:53.336Z,8.73
2019-03-30T22:04:04.310Z,8.70
2019-03-30T22:06:15.396Z,8.77
2019-03-30T22:08:26.465Z,8.47
2019-03-30T22:10:37.324Z,8.33
2019-03-30T22:12:48.306Z,8.33
2019-03-30T22:14:59.162Z,8.90
2019-03-30T22:17:10.125Z,8.40
2019-03-30T22:19:21.083Z,8.13
2019-03-30T22:21:31.957Z,9.13
2019-03-30T22:23:42.913Z,8.77
2019-03-30T22:25:53.748Z,8.60
2019-03-30T22:28:04.631Z,9.00
2019-03-30T22:30:24.575Z,8.53
2019-03-30T22:32:28.514Z,8.23
2019-03-30T22:34:39.373Z,8.37
2019-03-30T22:36:50.263Z,8.40
2019-03-30T22:39:01.127Z,8.50
2019-03-30T22:41:11.962Z,9.20
2019-03-30T22:43:23.097Z,8.40
2019-03-30T22:45:34.042Z,8.53
2019-03-30T22:47:44.918Z,8.30
2019-03-30T22:49:55.760Z,7.80
2019-03-30T22:52:06.623Z,8.73
2019-03-30T22:54:17.582Z,7.50
2019-03-30T22:56:28.451Z,8.27
2019-03-30T22:58:39.448Z,8.00
2019-03-30T23:00:59.013Z,7.87
2019-03-30T23:03:10.956Z,6.90
2019-03-30T23:05:21.941Z,7.40
2019-03-30T23:07:34.742Z,7.60
2019-03-30T23:09:45.619Z,8.17
2019-03-30T23:11:56.453Z,8.20
2019-03-30T23:14:07.423Z,7.70
2019-03-30T23:16:18.361Z,7.73
2019-03-30T23:18:29.308Z,8.27
2019-03-30T23:20:40.150Z,7.17
2019-03-30T23:22:51.003Z,8.17
2019-03-30T23:25:03.260Z,7.77
2019-03-30T23:27:14.114Z,7.00
2019-03-30T23:29:24.973Z,7.70
2019-03-30T23:31:35.805Z,8.00
2019-03-30T23:33:46.667Z,7.50
2019-03-30T23:35:57.631Z,7.40
2019-03-30T23:38:08.708Z,7.73
2019-03-30T23:40:19.665Z,7.77
2019-03-30T23:42:30.503Z,8.47
2019-03-30T23:44:41.357Z,7.73
2019-03-30T23:46:52.299Z,9.17
2019-03-30T23:49:03.265Z,8.87
2019-03-30T23:51:14.126Z,8.63
2019-03-30T23:53:25.010Z,8.90
2019-03-30T23:55:35.886Z,8.47
2019-03-30T23:57:46.739Z,8.77
2019-03-30T23:59:57.603Z,8.00
